createdAt,value
2023-04-18T00:01:13.133Z,86.39
2023-04-18T00:03:39.917Z,87.05
2023-04-18T00:06:06.719Z,86.94
2023-04-18T00:08:33.701Z,86.44
2023-04-18T00:11:00.245Z,86.97
2023-04-18T00:13:26.746Z,87.41
2023-04-18T00:15:53.313Z,87.43
2023-04-18T00:18:20.197Z,86.90
2023-04-18T00:20:46.867Z,87.33
2023-04-18T00:23:13.598Z,87.33
2023-04-18T00:25:41.258Z,86.61
2023-04-18T00:28:07.932Z,86.98
2023-04-18T00:30:34.496Z,87.67
2023-04-18T00:33:01.376Z,87.04
2023-04-18T00:35:28.122Z,86.75
2023-04-18T00:37:54.652Z,87.11
2023-04-18T00:40:21.194Z,86.83
2023-04-18T00:42:47.808Z,87.05
2023-04-18T00:45:14.474Z,86.38
2023-04-18T00:47:41.227Z,85.28
2023-04-18T00:50:09.543Z,86.14
2023-04-18T00:52:36.812Z,84.83
2023-04-18T00:55:07.105Z,84.53
2023-04-18T00:57:34.398Z,85.48
2023-04-18T01:00:01.957Z,83.68
2023-04-18T01:02:28.744Z,83.82
2023-04-18T01:04:55.382Z,83.78
2023-04-18T01:07:22.331Z,83.72
2023-04-18T01:09:48.969Z,83.77
2023-04-18T01:12:15.477Z,83.96
2023-04-18T01:14:42.345Z,83.39
2023-04-18T01:17:08.886Z,84.91
2023-04-18T01:19:35.475Z,84.80
2023-04-18T01:22:02.022Z,84.46
2023-04-18T01:24:28.651Z,85.10
2023-04-18T01:26:55.401Z,84.04
2023-04-18T01:29:21.990Z,84.63
2023-04-18T01:31:48.588Z,83.95
2023-04-18T01:34:15.484Z,84.10
2023-04-18T01:36:42.176Z,83.79
2023-04-18T01:39:08.810Z,83.78
2023-04-18T01:41:35.525Z,83.79
2023-04-18T01:44:02.348Z,82.97
2023-04-18T01:46:29.288Z,82.89
2023-04-18T01:48:57.056Z,82.25
2023-04-18T01:51:23.709Z,81.53
2023-04-18T01:53:50.552Z,81.27
2023-04-18T01:56:17.237Z,81.12
2023-04-18T01:58:43.912Z,80.72
2023-04-18T02:01:10.612Z,81.40
2023-04-18T02:03:37.504Z,79.77
2023-04-18T02:06:05.065Z,79.97
2023-04-18T02:08:32.052Z,79.88
2023-04-18T02:10:59.190Z,79.27
2023-04-18T02:13:25.742Z,79.17
2023-04-18T02:15:52.279Z,79.17
2023-04-18T02:18:18.888Z,80.23
2023-04-18T02:20:45.482Z,80.99
2023-04-18T02:23:12.129Z,80.98
2023-04-18T02:25:38.662Z,80.74
2023-04-18T02:28:05.192Z,80.82
2023-04-18T02:30:31.835Z,81.11
2023-04-18T02:32:58.403Z,80.86
2023-04-18T02:35:26.070Z,80.95
2023-04-18T02:37:52.585Z,80.33
2023-04-18T02:40:19.498Z,80.51
2023-04-18T02:42:46.016Z,80.59
2023-04-18T02:45:12.579Z,81.18
2023-04-18T02:47:51.285Z,81.49
2023-04-18T02:50:20.774Z,81.14
2023-04-18T02:52:47.524Z,81.89
2023-04-18T02:55:14.137Z,81.87
2023-04-18T02:57:40.713Z,82.00
2023-04-18T03:00:07.752Z,81.33
2023-04-18T03:02:34.416Z,81.60
2023-04-18T03:05:01.086Z,81.38
2023-04-18T03:07:27.659Z,81.39
2023-04-18T03:09:54.185Z,81.05
2023-04-18T03:12:20.757Z,81.58
2023-04-18T03:14:47.393Z,81.19
2023-04-18T03:17:14.212Z,80.47
2023-04-18T03:19:40.827Z,81.12
2023-04-18T03:22:07.345Z,80.99
2023-04-18T03:24:33.903Z,81.29
2023-04-18T03:27:00.626Z,81.73
2023-04-18T03:29:27.350Z,81.26
2023-04-18T03:31:53.943Z,81.07
2023-04-18T03:34:20.489Z,80.77
2023-04-18T03:36:48.263Z,80.90
2023-04-18T03:39:15.047Z,81.10
2023-04-18T03:41:41.742Z,80.79
2023-04-18T03:44:08.315Z,81.07
2023-04-18T03:46:35.306Z,80.75
2023-04-18T03:49:01.909Z,80.98
2023-04-18T03:51:33.363Z,81.11
2023-04-18T03:53:59.946Z,80.79
2023-04-18T03:56:26.634Z,80.81
2023-04-18T03:58:53.156Z,81.09
2023-04-18T04:01:19.664Z,80.67
2023-04-18T04:03:46.410Z,79.86
2023-04-18T04:06:13.255Z,81.22
2023-04-18T04:08:39.970Z,80.47
2023-04-18T04:11:06.523Z,80.79
2023-04-18T04:13:33.148Z,79.93
2023-04-18T04:15:59.851Z,79.90
2023-04-18T04:18:26.520Z,79.48
2023-04-18T04:20:53.040Z,79.38
2023-04-18T04:23:19.555Z,78.51
2023-04-18T04:25:46.108Z,77.80
2023-04-18T04:28:12.639Z,78.60
2023-04-18T04:30:39.223Z,79.51
2023-04-18T04:33:05.843Z,77.60
2023-04-18T04:35:32.468Z,78.18
2023-04-18T04:37:59.107Z,78.04
2023-04-18T04:40:25.699Z,78.17
2023-04-18T04:42:52.293Z,77.65
2023-04-18T04:45:18.855Z,77.31
2023-04-18T04:47:45.908Z,76.27
2023-04-18T04:50:14.976Z,74.42
2023-04-18T04:52:44.323Z,74.09
2023-04-18T04:55:10.885Z,72.80
2023-04-18T04:57:37.782Z,73.59
2023-04-18T05:00:04.952Z,72.09
2023-04-18T05:02:31.580Z,69.93
2023-04-18T05:04:58.196Z,70.18
2023-04-18T05:07:25.051Z,68.86
2023-04-18T05:09:51.690Z,68.15
2023-04-18T05:12:18.205Z,65.73
2023-04-18T05:14:44.786Z,67.73
2023-04-18T05:17:11.402Z,66.12
2023-04-18T05:19:37.997Z,63.74
2023-04-18T05:22:04.604Z,62.22
2023-04-18T10:45:39.257Z,30.57
2023-04-18T11:05:44.779Z,26.61
2023-04-18T11:08:26.203Z,25.98
2023-04-18T11:11:00.333Z,27.19
2023-04-18T11:13:28.185Z,25.87
2023-04-18T11:15:54.854Z,27.15
2023-04-18T11:18:21.403Z,27.23
2023-04-18T11:20:50.413Z,27.08
2023-04-18T11:23:18.921Z,29.48
2023-04-18T11:25:45.738Z,29.05
2023-04-18T11:28:12.454Z,29.34
2023-04-18T11:30:40.718Z,27.76
2023-04-18T11:33:08.922Z,29.94
2023-04-18T11:35:39.966Z,29.85
2023-04-18T11:38:07.451Z,32.83
2023-04-18T11:40:34.543Z,31.63
2023-04-18T11:43:02.707Z,31.46
2023-04-18T11:45:29.792Z,31.78
2023-04-18T11:48:00.833Z,33.04
2023-04-18T11:50:27.589Z,33.46
2023-04-18T11:52:56.567Z,31.40
2023-04-18T11:55:25.149Z,32.34
2023-04-18T11:57:56.707Z,30.96
2023-04-18T12:00:33.413Z,33.51
2023-04-18T12:03:01.296Z,32.85
2023-04-18T12:05:30.504Z,30.97
2023-04-18T12:08:08.950Z,30.92
2023-04-18T12:10:36.086Z,32.34
2023-04-18T12:13:07.035Z,31.57
2023-04-18T12:15:43.575Z,30.20
2023-04-18T12:18:12.672Z,31.37
2023-04-18T12:20:53.579Z,31.82
2023-04-18T12:23:40.348Z,31.37
2023-04-18T12:26:17.235Z,30.65
2023-04-18T12:28:51.039Z,31.05
2023-04-18T12:31:17.983Z,31.12
2023-04-18T12:33:45.268Z,31.95
2023-04-18T12:36:11.906Z,30.00
2023-04-18T12:38:38.857Z,29.14
2023-04-18T12:41:05.463Z,29.15
2023-04-18T12:43:35.194Z,30.70
2023-04-18T12:46:02.586Z,30.25
2023-04-18T12:51:11.662Z,31.61
2023-04-18T12:53:45.652Z,29.51
2023-04-18T12:56:12.332Z,29.64
2023-04-18T12:58:38.931Z,31.37
2023-04-18T13:01:05.539Z,29.77
2023-04-18T13:03:32.439Z,29.88
2023-04-18T13:05:59.315Z,30.93
2023-04-18T13:08:25.891Z,30.79
2023-04-18T13:10:53.832Z,30.87
2023-04-18T13:13:20.447Z,31.44
2023-04-18T13:15:46.993Z,30.21
2023-04-18T13:18:13.538Z,31.53
2023-04-18T13:20:40.161Z,30.66
2023-04-18T13:23:06.780Z,31.48
2023-04-18T13:25:33.437Z,30.84
2023-04-18T13:27:59.936Z,29.75
2023-04-18T13:30:26.604Z,27.82
2023-04-18T13:32:53.237Z,29.37
2023-04-18T13:35:20.438Z,29.71
2023-04-18T13:37:47.039Z,29.21
2023-04-18T13:40:13.828Z,28.92
2023-04-18T13:42:40.407Z,27.77
2023-04-18T13:45:07.472Z,29.75
2023-04-18T13:47:34.333Z,29.18
2023-04-18T13:50:01.073Z,27.92
2023-04-18T13:52:27.805Z,27.68
2023-04-18T13:54:54.631Z,30.56
2023-04-18T13:57:21.335Z,29.89
2023-04-18T13:59:48.119Z,29.50
2023-04-18T14:02:14.906Z,30.17
2023-04-18T14:04:41.712Z,33.02
2023-04-18T14:07:08.509Z,33.71
2023-04-18T14:09:35.103Z,32.28
2023-04-18T14:12:01.818Z,33.26
2023-04-18T14:14:28.482Z,33.44
2023-04-18T14:16:55.080Z,32.89
2023-04-18T14:19:21.620Z,30.73
2023-04-18T14:21:48.191Z,31.70
2023-04-18T14:24:14.899Z,31.28
2023-04-18T14:26:41.775Z,30.97
2023-04-18T14:29:08.343Z,31.82
2023-04-18T14:31:34.993Z,31.59
2023-04-18T14:34:01.599Z,32.40
2023-04-18T14:36:28.378Z,31.31
2023-04-18T14:38:54.940Z,31.82
2023-04-18T14:41:21.633Z,30.99
2023-04-18T14:43:48.354Z,33.06
2023-04-18T14:46:15.489Z,33.40
2023-04-18T14:48:44.053Z,32.30
2023-04-18T14:51:10.685Z,31.88
2023-04-18T14:53:37.298Z,32.54
2023-04-18T14:56:03.971Z,33.66
2023-04-18T14:58:30.499Z,34.07
2023-04-18T15:00:57.102Z,35.87
2023-04-18T15:03:23.942Z,35.30
2023-04-18T15:05:50.749Z,36.23
2023-04-18T15:08:17.345Z,36.42
2023-04-18T15:10:44.009Z,36.57
2023-04-18T15:13:12.066Z,36.46
2023-04-18T15:15:38.929Z,35.89
2023-04-18T15:18:06.956Z,35.66
2023-04-18T15:20:33.658Z,36.66
2023-04-18T15:23:00.230Z,36.48
2023-04-18T15:25:26.826Z,36.33
2023-04-18T15:27:53.473Z,36.23
2023-04-18T15:30:20.070Z,37.69
2023-04-18T15:32:47.882Z,36.80
2023-04-18T15:35:14.508Z,37.47
2023-04-18T15:37:41.057Z,35.95
2023-04-18T15:40:08.341Z,36.21
2023-04-18T15:42:35.059Z,36.73
2023-04-18T15:45:01.629Z,36.08
2023-04-18T15:47:28.287Z,35.93
2023-04-18T15:49:54.864Z,35.89
2023-04-18T15:52:21.422Z,36.16
2023-04-18T15:54:47.986Z,35.78
2023-04-18T15:57:14.605Z,36.37
2023-04-18T15:59:41.341Z,37.15
2023-04-18T16:02:08.923Z,37.60
2023-04-18T16:04:35.672Z,38.18
2023-04-18T16:07:02.236Z,37.43
2023-04-18T16:09:28.755Z,37.49
2023-04-18T16:11:55.385Z,37.84
2023-04-18T16:14:21.927Z,38.64
2023-04-18T16:16:48.513Z,38.45
2023-04-18T16:19:16.940Z,37.40
2023-04-18T16:21:43.548Z,38.12
2023-04-18T16:24:10.074Z,37.86
2023-04-18T16:26:36.657Z,37.95
2023-04-18T16:29:03.360Z,37.93
2023-04-18T16:31:29.976Z,37.70
2023-04-18T16:33:56.687Z,37.01
2023-04-18T16:36:23.314Z,37.29
2023-04-18T16:38:49.878Z,38.70
2023-04-18T16:41:16.533Z,38.82
2023-04-18T16:43:43.199Z,38.36
2023-04-18T16:46:09.772Z,38.69
2023-04-18T16:48:36.376Z,38.20
2023-04-18T16:51:02.941Z,38.56
2023-04-18T16:53:29.467Z,38.48
2023-04-18T16:55:56.108Z,38.69
2023-04-18T16:58:22.622Z,39.80
2023-04-18T17:00:49.382Z,38.96
2023-04-18T17:03:16.022Z,39.01
2023-04-18T17:05:42.739Z,39.12
2023-04-18T17:08:09.288Z,39.54
2023-04-18T17:10:35.962Z,39.33
2023-04-18T17:13:03.262Z,39.06
2023-04-18T17:15:30.002Z,40.29
2023-04-18T17:17:56.647Z,39.75
2023-04-18T17:20:23.373Z,40.66
2023-04-18T17:22:49.941Z,39.14
2023-04-18T17:25:16.802Z,39.82
2023-04-18T17:27:43.579Z,39.45
2023-04-18T17:30:10.804Z,40.15
2023-04-18T17:32:37.410Z,39.26
2023-04-18T17:35:04.055Z,38.68
2023-04-18T17:37:30.978Z,39.68
2023-04-18T17:39:57.652Z,40.40
2023-04-18T17:42:24.217Z,39.87
2023-04-18T17:44:50.787Z,39.80
2023-04-18T17:47:18.051Z,40.94
2023-04-18T17:49:44.639Z,40.97
2023-04-18T17:52:11.183Z,40.72
2023-04-18T17:54:37.776Z,41.13
2023-04-18T17:57:04.362Z,40.38
2023-04-18T17:59:31.180Z,40.68
2023-04-18T18:01:57.993Z,41.26
2023-04-18T18:04:26.464Z,40.49
2023-04-18T18:06:57.958Z,40.82
2023-04-18T18:09:24.654Z,40.23
2023-04-18T18:11:52.033Z,40.81
2023-04-18T18:14:19.495Z,40.54
2023-04-18T18:16:46.116Z,40.52
2023-04-18T18:19:12.915Z,39.25
2023-04-18T18:21:39.636Z,40.62
2023-04-18T18:24:06.314Z,40.03
2023-04-18T18:26:35.109Z,40.55
2023-04-18T18:29:02.771Z,41.36
2023-04-18T18:31:29.458Z,40.02
2023-04-18T18:33:56.102Z,41.24
2023-04-18T18:36:22.625Z,39.75
2023-04-18T18:38:49.176Z,39.80
2023-04-18T18:41:15.834Z,39.44
2023-04-18T18:43:42.330Z,40.50
2023-04-18T18:46:09.169Z,40.90
2023-04-18T18:48:35.738Z,40.79
2023-04-18T18:51:02.270Z,40.63
2023-04-18T18:53:28.821Z,41.39
2023-04-18T18:55:55.446Z,40.95
2023-04-18T18:58:22.125Z,41.87
2023-04-18T19:00:48.857Z,41.22
2023-04-18T19:03:15.551Z,42.07
2023-04-18T19:05:42.105Z,41.54
2023-04-18T19:08:08.655Z,41.46
2023-04-18T19:10:35.270Z,42.38
2023-04-18T19:13:01.842Z,42.90
2023-04-18T19:15:28.417Z,42.71
2023-04-18T19:17:55.801Z,43.16
2023-04-18T19:20:23.341Z,43.92
2023-04-18T19:22:50.111Z,44.25
2023-04-18T19:25:16.661Z,44.43
2023-04-18T19:27:43.363Z,43.62
2023-04-18T19:30:11.390Z,44.06
2023-04-18T19:32:38.081Z,44.69
2023-04-18T19:35:05.169Z,44.78
2023-04-18T19:37:31.865Z,44.52
2023-04-18T19:39:58.404Z,44.14
2023-04-18T19:42:24.960Z,45.43
2023-04-18T19:44:54.061Z,44.30
2023-04-18T19:47:20.735Z,44.85
2023-04-18T19:49:47.396Z,44.88
2023-04-18T19:52:14.950Z,44.07
2023-04-18T19:54:41.696Z,43.91
2023-04-18T19:57:08.263Z,43.73
2023-04-18T19:59:34.943Z,44.06
2023-04-18T20:02:04.301Z,44.65
2023-04-18T20:04:32.415Z,44.32
2023-04-18T20:06:59.106Z,44.66
2023-04-18T20:09:25.747Z,44.62
2023-04-18T20:11:52.293Z,43.52
2023-04-18T20:14:18.826Z,44.05
2023-04-18T20:16:45.410Z,43.87
2023-04-18T20:19:12.929Z,45.22
2023-04-18T20:21:39.572Z,44.29
2023-04-18T20:24:06.527Z,44.91
2023-04-18T20:26:33.351Z,45.43
2023-04-18T20:28:59.963Z,45.01
2023-04-18T20:31:26.568Z,45.04
2023-04-18T20:33:53.070Z,45.43
2023-04-18T20:36:20.198Z,45.30
2023-04-18T20:38:46.698Z,45.41
2023-04-18T20:41:14.300Z,46.34
2023-04-18T20:43:41.881Z,46.13
2023-04-18T20:46:08.453Z,45.82
2023-04-18T20:48:35.021Z,46.23
2023-04-18T20:51:01.796Z,46.53
2023-04-18T20:53:28.604Z,46.49
2023-04-18T20:55:57.274Z,46.63
2023-04-18T20:58:24.103Z,46.82
2023-04-18T21:00:52.966Z,47.20
2023-04-18T21:03:19.804Z,47.95
2023-04-18T21:05:46.407Z,47.27
2023-04-18T21:08:12.967Z,48.00
2023-04-18T21:10:40.003Z,47.96
2023-04-18T21:13:06.817Z,48.17
2023-04-18T21:15:35.045Z,48.57
2023-04-18T21:18:04.742Z,48.10
2023-04-18T21:20:31.384Z,49.23
2023-04-18T21:22:58.035Z,48.56
2023-04-18T21:25:24.559Z,48.83
2023-04-18T21:27:51.108Z,49.38
2023-04-18T21:30:18.386Z,49.50
2023-04-18T21:32:46.154Z,48.90
2023-04-18T21:35:20.141Z,49.46
2023-04-18T21:37:47.925Z,49.26
2023-04-18T21:40:14.847Z,49.84
2023-04-18T21:42:41.578Z,49.65
2023-04-18T21:45:10.008Z,49.58
2023-04-18T21:47:36.579Z,50.28
2023-04-18T21:50:04.040Z,49.98
2023-04-18T21:52:30.671Z,49.68
2023-04-18T21:54:57.336Z,49.63
2023-04-18T21:57:24.084Z,50.82
2023-04-18T21:59:50.859Z,50.06
2023-04-18T22:02:17.754Z,50.14
2023-04-18T22:04:47.165Z,51.17
2023-04-18T22:07:14.291Z,50.72
2023-04-18T22:09:41.066Z,51.19
2023-04-18T22:12:08.065Z,51.20
2023-04-18T22:14:34.673Z,51.20
2023-04-18T22:17:02.226Z,52.13
2023-04-18T22:19:32.434Z,52.13
2023-04-18T22:21:59.101Z,52.47
2023-04-18T22:24:25.681Z,53.00
2023-04-18T22:26:53.201Z,52.70
2023-04-18T22:29:19.853Z,53.23
2023-04-18T22:31:46.492Z,52.57
2023-04-18T22:34:13.192Z,52.22
2023-04-18T22:36:39.964Z,52.16
2023-04-18T22:39:06.481Z,52.38
2023-04-18T22:41:34.695Z,52.95
2023-04-18T22:44:04.005Z,53.16
2023-04-18T22:46:30.708Z,53.31
2023-04-18T22:48:58.605Z,52.75
2023-04-18T22:51:25.201Z,53.57
2023-04-18T22:53:51.705Z,52.57
2023-04-18T22:56:18.278Z,52.74
2023-04-18T22:58:44.850Z,52.50
2023-04-18T23:01:13.801Z,52.33
2023-04-18T23:03:40.490Z,52.60
2023-04-18T23:06:07.999Z,52.71
2023-04-18T23:08:34.570Z,52.03
2023-04-18T23:11:01.259Z,52.77
2023-04-18T23:13:30.529Z,52.92
2023-04-18T23:15:57.189Z,52.89
2023-04-18T23:18:26.669Z,52.71
2023-04-18T23:20:53.244Z,52.41
2023-04-18T23:23:19.818Z,52.93
2023-04-18T23:25:46.649Z,52.92
2023-04-18T23:28:16.716Z,53.10
2023-04-18T23:30:43.343Z,52.68
2023-04-18T23:33:10.066Z,53.66
2023-04-18T23:35:39.324Z,52.88
2023-04-18T23:38:05.886Z,52.76
2023-04-18T23:40:32.380Z,52.17
2023-04-18T23:43:01.393Z,52.38
2023-04-18T23:45:28.260Z,51.88
2023-04-18T23:47:54.965Z,52.37
2023-04-18T23:50:21.685Z,52.90
2023-04-18T23:52:54.169Z,51.88
2023-04-18T23:55:20.744Z,52.00
2023-04-18T23:57:47.333Z,52.46
